sensor_id;sensor_type;location;lat;lon;timestamp;P1;durP1;ratioP1;P2;durP2;ratioP2
75718;SDS011;64340;48.534;-3.036;2024-02-21T00:00:45;1.75;;;0.60;;
75718;SDS011;64340;48.534;-3.036;2024-02-21T00:03:11;2.75;;;0.80;;
75718;SDS011;64340;48.534;-3.036;2024-02-21T00:05:37;1.80;;;0.60;;
75718;SDS011;64340;48.534;-3.036;2024-02-21T00:08:03;2.58;;;0.65;;
75718;SDS011;64340;48.534;-3.036;2024-02-21T00:10:29;1.23;;;0.63;;
75718;SDS011;64340;48.534;-3.036;2024-02-21T00:12:56;1.27;;;0.50;;
75718;SDS011;64340;48.534;-3.036;2024-02-21T00:15:24;2.72;;;0.80;;
75718;SDS011;64340;48.534;-3.036;2024-02-21T00:17:50;2.08;;;0.73;;
75718;SDS011;64340;48.534;-3.036;2024-02-21T00:20:16;2.45;;;0.73;;
75718;SDS011;64340;48.534;-3.036;2024-02-21T00:22:42;1.98;;;0.80;;
75718;SDS011;64340;48.534;-3.036;2024-02-21T00:25:09;2.10;;;0.40;;
75718;SDS011;64340;48.534;-3.036;2024-02-21T00:27:35;2.15;;;0.60;;
75718;SDS011;64340;48.534;-3.036;2024-02-21T00:30:01;2.03;;;0.63;;
75718;SDS011;64340;48.534;-3.036;2024-02-21T00:32:27;2.05;;;0.60;;
75718;SDS011;64340;48.534;-3.036;2024-02-21T00:34:53;1.98;;;0.65;;
75718;SDS011;64340;48.534;-3.036;2024-02-21T00:37:18;2.20;;;0.57;;
75718;SDS011;64340;48.534;-3.036;2024-02-21T00:39:44;1.52;;;0.57;;
75718;SDS011;64340;48.534;-3.036;2024-02-21T00:42:10;2.70;;;0.80;;
75718;SDS011;64340;48.534;-3.036;2024-02-21T00:44:35;1.42;;;0.47;;
75718;SDS011;64340;48.534;-3.036;2024-02-21T00:47:01;0.82;;;0.35;;
75718;SDS011;64340;48.534;-3.036;2024-02-21T00:49:27;1.75;;;0.65;;
75718;SDS011;64340;48.534;-3.036;2024-02-21T00:51:53;1.75;;;0.52;;
75718;SDS011;64340;48.534;-3.036;2024-02-21T00:54:18;2.60;;;0.77;;
75718;SDS011;64340;48.534;-3.036;2024-02-21T00:56:44;2.13;;;0.60;;
75718;SDS011;64340;48.534;-3.036;2024-02-21T00:59:10;1.42;;;0.50;;
75718;SDS011;64340;48.534;-3.036;2024-02-21T01:01:36;2.30;;;0.60;;
75718;SDS011;64340;48.534;-3.036;2024-02-21T01:04:01;1.65;;;0.40;;
75718;SDS011;64340;48.534;-3.036;2024-02-21T01:06:27;2.00;;;0.50;;
75718;SDS011;64340;48.534;-3.036;2024-02-21T01:08:53;3.17;;;0.50;;
75718;SDS011;64340;48.534;-3.036;2024-02-21T01:11:18;1.30;;;0.60;;
75718;SDS011;64340;48.534;-3.036;2024-02-21T01:13:44;2.17;;;0.60;;
75718;SDS011;64340;48.534;-3.036;2024-02-21T01:16:10;2.13;;;0.55;;
75718;SDS011;64340;48.534;-3.036;2024-02-21T01:18:39;1.67;;;0.52;;
75718;SDS011;64340;48.534;-3.036;2024-02-21T01:21:05;0.63;;;0.40;;
75718;SDS011;64340;48.534;-3.036;2024-02-21T01:23:32;3.03;;;0.50;;
75718;SDS011;64340;48.534;-3.036;2024-02-21T01:26:02;1.50;;;0.50;;
75718;SDS011;64340;48.534;-3.036;2024-02-21T01:28:28;2.40;;;0.43;;
75718;SDS011;64340;48.534;-3.036;2024-02-21T01:30:54;2.30;;;0.70;;
75718;SDS011;64340;48.534;-3.036;2024-02-21T01:33:19;1.20;;;0.43;;
75718;SDS011;64340;48.534;-3.036;2024-02-21T01:35:45;2.60;;;0.73;;
75718;SDS011;64340;48.534;-3.036;2024-02-21T01:38:12;2.20;;;0.40;;
75718;SDS011;64340;48.534;-3.036;2024-02-21T01:40:38;2.25;;;0.60;;
75718;SDS011;64340;48.534;-3.036;2024-02-21T01:43:14;1.75;;;0.40;;
75718;SDS011;64340;48.534;-3.036;2024-02-21T01:45:45;1.63;;;0.35;;
75718;SDS011;64340;48.534;-3.036;2024-02-21T01:48:14;0.98;;;0.47;;
75718;SDS011;64340;48.534;-3.036;2024-02-21T01:50:42;3.22;;;0.68;;
75718;SDS011;64340;48.534;-3.036;2024-02-21T01:53:09;1.83;;;0.50;;
75718;SDS011;64340;48.534;-3.036;2024-02-21T01:55:35;1.23;;;0.73;;
75718;SDS011;64340;48.534;-3.036;2024-02-21T01:58:01;1.88;;;0.50;;
75718;SDS011;64340;48.534;-3.036;2024-02-21T02:00:27;2.08;;;0.40;;
75718;SDS011;64340;48.534;-3.036;2024-02-21T02:02:53;1.33;;;0.55;;
75718;SDS011;64340;48.534;-3.036;2024-02-21T02:05:19;3.05;;;0.45;;
75718;SDS011;64340;48.534;-3.036;2024-02-21T02:07:46;2.05;;;0.63;;
75718;SDS011;64340;48.534;-3.036;2024-02-21T02:10:12;1.88;;;0.50;;
75718;SDS011;64340;48.534;-3.036;2024-02-21T02:12:38;1.42;;;0.40;;
75718;SDS011;64340;48.534;-3.036;2024-02-21T02:15:03;1.63;;;0.50;;
75718;SDS011;64340;48.534;-3.036;2024-02-21T02:17:30;1.45;;;0.40;;
75718;SDS011;64340;48.534;-3.036;2024-02-21T02:19:56;1.30;;;0.45;;
75718;SDS011;64340;48.534;-3.036;2024-02-21T02:22:22;4.35;;;0.60;;
75718;SDS011;64340;48.534;-3.036;2024-02-21T02:24:53;1.35;;;0.60;;
75718;SDS011;64340;48.534;-3.036;2024-02-21T02:27:19;1.67;;;0.40;;
75718;SDS011;64340;48.534;-3.036;2024-02-21T02:29:45;1.52;;;0.30;;
75718;SDS011;64340;48.534;-3.036;2024-02-21T02:32:11;1.40;;;0.30;;
75718;SDS011;64340;48.534;-3.036;2024-02-21T02:34:37;2.20;;;0.35;;
75718;SDS011;64340;48.534;-3.036;2024-02-21T02:37:04;2.55;;;0.35;;
75718;SDS011;64340;48.534;-3.036;2024-02-21T02:39:30;1.83;;;0.47;;
75718;SDS011;64340;48.534;-3.036;2024-02-21T02:41:56;1.48;;;0.40;;
75718;SDS011;64340;48.534;-3.036;2024-02-21T02:44:22;1.77;;;0.70;;
75718;SDS011;64340;48.534;-3.036;2024-02-21T02:46:47;1.52;;;0.40;;
75718;SDS011;64340;48.534;-3.036;2024-02-21T02:49:13;1.95;;;0.40;;
75718;SDS011;64340;48.534;-3.036;2024-02-21T02:51:42;2.05;;;0.55;;
75718;SDS011;64340;48.534;-3.036;2024-02-21T02:54:09;2.63;;;0.70;;
75718;SDS011;64340;48.534;-3.036;2024-02-21T02:56:35;2.22;;;0.47;;
75718;SDS011;64340;48.534;-3.036;2024-02-21T02:59:00;1.77;;;0.57;;
75718;SDS011;64340;48.534;-3.036;2024-02-21T03:01:26;2.92;;;0.43;;
75718;SDS011;64340;48.534;-3.036;2024-02-21T03:03:52;2.35;;;0.45;;
75718;SDS011;64340;48.534;-3.036;2024-02-21T03:06:18;1.83;;;0.40;;
75718;SDS011;64340;48.534;-3.036;2024-02-21T03:08:44;1.63;;;0.30;;
75718;SDS011;64340;48.534;-3.036;2024-02-21T03:11:10;2.28;;;0.40;;
75718;SDS011;64340;48.534;-3.036;2024-02-21T03:13:36;1.80;;;0.40;;
75718;SDS011;64340;48.534;-3.036;2024-02-21T03:16:02;2.25;;;0.40;;
75718;SDS011;64340;48.534;-3.036;2024-02-21T03:18:28;1.42;;;0.47;;
75718;SDS011;64340;48.534;-3.036;2024-02-21T03:20:53;0.85;;;0.32;;
75718;SDS011;64340;48.534;-3.036;2024-02-21T03:23:19;1.75;;;0.50;;
75718;SDS011;64340;48.534;-3.036;2024-02-21T03:25:45;2.65;;;0.60;;
75718;SDS011;64340;48.534;-3.036;2024-02-21T03:28:11;1.30;;;0.32;;
75718;SDS011;64340;48.534;-3.036;2024-02-21T03:30:36;1.17;;;0.30;;
75718;SDS011;64340;48.534;-3.036;2024-02-21T03:33:02;0.82;;;0.30;;
75718;SDS011;64340;48.534;-3.036;2024-02-21T03:35:28;2.28;;;0.40;;
75718;SDS011;64340;48.534;-3.036;2024-02-21T03:37:54;2.25;;;0.57;;
75718;SDS011;64340;48.534;-3.036;2024-02-21T03:40:19;2.13;;;0.43;;
75718;SDS011;64340;48.534;-3.036;2024-02-21T03:42:45;1.92;;;0.60;;
75718;SDS011;64340;48.534;-3.036;2024-02-21T03:45:11;1.30;;;0.40;;
75718;SDS011;64340;48.534;-3.036;2024-02-21T03:47:37;2.28;;;0.47;;
75718;SDS011;64340;48.534;-3.036;2024-02-21T03:50:03;1.65;;;0.55;;
75718;SDS011;64340;48.534;-3.036;2024-02-21T03:52:30;2.33;;;0.75;;
75718;SDS011;64340;48.534;-3.036;2024-02-21T03:54:55;0.88;;;0.32;;
75718;SDS011;64340;48.534;-3.036;2024-02-21T03:57:21;1.30;;;0.25;;
75718;SDS011;64340;48.534;-3.036;2024-02-21T03:59:49;1.90;;;0.40;;
75718;SDS011;64340;48.534;-3.036;2024-02-21T04:02:16;1.35;;;0.30;;
75718;SDS011;64340;48.534;-3.036;2024-02-21T04:04:43;0.95;;;0.30;;
75718;SDS011;64340;48.534;-3.036;2024-02-21T04:07:11;1.73;;;0.55;;
75718;SDS011;64340;48.534;-3.036;2024-02-21T04:09:37;2.92;;;0.55;;
75718;SDS011;64340;48.534;-3.036;2024-02-21T04:12:03;1.45;;;0.30;;
75718;SDS011;64340;48.534;-3.036;2024-02-21T04:14:29;2.47;;;0.73;;
75718;SDS011;64340;48.534;-3.036;2024-02-21T04:16:55;1.55;;;0.55;;
75718;SDS011;64340;48.534;-3.036;2024-02-21T04:19:21;2.58;;;0.57;;
75718;SDS011;64340;48.534;-3.036;2024-02-21T04:21:46;2.30;;;0.30;;
75718;SDS011;64340;48.534;-3.036;2024-02-21T04:24:12;2.20;;;0.60;;
75718;SDS011;64340;48.534;-3.036;2024-02-21T04:26:38;3.60;;;0.57;;
75718;SDS011;64340;48.534;-3.036;2024-02-21T04:29:04;1.45;;;0.50;;
75718;SDS011;64340;48.534;-3.036;2024-02-21T04:31:32;2.28;;;0.40;;
75718;SDS011;64340;48.534;-3.036;2024-02-21T04:33:58;1.55;;;0.70;;
75718;SDS011;64340;48.534;-3.036;2024-02-21T04:36:24;2.47;;;0.30;;
75718;SDS011;64340;48.534;-3.036;2024-02-21T04:38:49;2.22;;;0.47;;
75718;SDS011;64340;48.534;-3.036;2024-02-21T04:41:15;3.08;;;1.27;;
75718;SDS011;64340;48.534;-3.036;2024-02-21T04:43:41;2.45;;;0.40;;
75718;SDS011;64340;48.534;-3.036;2024-02-21T04:46:06;0.73;;;0.40;;
75718;SDS011;64340;48.534;-3.036;2024-02-21T04:48:32;1.08;;;0.38;;
75718;SDS011;64340;48.534;-3.036;2024-02-21T04:50:58;1.02;;;0.32;;
75718;SDS011;64340;48.534;-3.036;2024-02-21T04:53:24;1.52;;;0.43;;
75718;SDS011;64340;48.534;-3.036;2024-02-21T04:55:49;1.30;;;0.40;;
75718;SDS011;64340;48.534;-3.036;2024-02-21T04:58:15;3.30;;;0.30;;
75718;SDS011;64340;48.534;-3.036;2024-02-21T05:00:41;1.60;;;0.40;;
75718;SDS011;64340;48.534;-3.036;2024-02-21T05:03:06;2.10;;;0.35;;
75718;SDS011;64340;48.534;-3.036;2024-02-21T05:05:32;1.75;;;0.32;;
75718;SDS011;64340;48.534;-3.036;2024-02-21T05:07:58;1.70;;;0.35;;
75718;SDS011;64340;48.534;-3.036;2024-02-21T05:10:23;1.55;;;0.65;;
75718;SDS011;64340;48.534;-3.036;2024-02-21T05:12:49;1.65;;;0.52;;
75718;SDS011;64340;48.534;-3.036;2024-02-21T05:15:15;3.85;;;0.60;;
75718;SDS011;64340;48.534;-3.036;2024-02-21T05:17:41;0.85;;;0.30;;
75718;SDS011;64340;48.534;-3.036;2024-02-21T05:20:08;2.17;;;0.40;;
75718;SDS011;64340;48.534;-3.036;2024-02-21T05:22:34;2.67;;;0.50;;
75718;SDS011;64340;48.534;-3.036;2024-02-21T05:24:59;0.80;;;0.30;;
75718;SDS011;64340;48.534;-3.036;2024-02-21T05:27:25;2.55;;;0.40;;
75718;SDS011;64340;48.534;-3.036;2024-02-21T05:29:51;1.38;;;0.30;;
75718;SDS011;64340;48.534;-3.036;2024-02-21T05:32:18;3.60;;;0.50;;
75718;SDS011;64340;48.534;-3.036;2024-02-21T05:34:44;1.67;;;0.43;;
75718;SDS011;64340;48.534;-3.036;2024-02-21T05:37:09;3.78;;;0.43;;
75718;SDS011;64340;48.534;-3.036;2024-02-21T05:39:35;3.83;;;0.47;;
75718;SDS011;64340;48.534;-3.036;2024-02-21T05:42:01;2.55;;;0.30;;
75718;SDS011;64340;48.534;-3.036;2024-02-21T05:44:26;1.95;;;0.40;;
75718;SDS011;64340;48.534;-3.036;2024-02-21T05:46:52;0.95;;;0.30;;
75718;SDS011;64340;48.534;-3.036;2024-02-21T05:49:18;1.20;;;0.40;;
75718;SDS011;64340;48.534;-3.036;2024-02-21T05:51:43;1.35;;;0.40;;
75718;SDS011;64340;48.534;-3.036;2024-02-21T05:54:09;3.55;;;0.40;;
75718;SDS011;64340;48.534;-3.036;2024-02-21T05:56:35;1.92;;;0.43;;
75718;SDS011;64340;48.534;-3.036;2024-02-21T05:59:00;3.20;;;0.40;;
75718;SDS011;64340;48.534;-3.036;2024-02-21T06:01:27;2.55;;;0.43;;
75718;SDS011;64340;48.534;-3.036;2024-02-21T06:03:53;3.58;;;0.45;;
75718;SDS011;64340;48.534;-3.036;2024-02-21T06:06:19;2.13;;;0.50;;
75718;SDS011;64340;48.534;-3.036;2024-02-21T06:08:47;2.47;;;0.52;;
75718;SDS011;64340;48.534;-3.036;2024-02-21T06:11:12;2.35;;;0.70;;
75718;SDS011;64340;48.534;-3.036;2024-02-21T06:13:40;4.40;;;0.80;;
75718;SDS011;64340;48.534;-3.036;2024-02-21T06:16:06;5.47;;;1.05;;
75718;SDS011;64340;48.534;-3.036;2024-02-21T06:18:32;3.58;;;0.60;;
75718;SDS011;64340;48.534;-3.036;2024-02-21T06:21:00;4.53;;;0.70;;
75718;SDS011;64340;48.534;-3.036;2024-02-21T06:23:25;2.08;;;0.60;;
75718;SDS011;64340;48.534;-3.036;2024-02-21T06:25:51;4.55;;;0.82;;
75718;SDS011;64340;48.534;-3.036;2024-02-21T06:28:17;4.72;;;0.80;;
75718;SDS011;64340;48.534;-3.036;2024-02-21T06:30:43;2.97;;;0.80;;
75718;SDS011;64340;48.534;-3.036;2024-02-21T06:33:08;5.22;;;1.05;;
75718;SDS011;64340;48.534;-3.036;2024-02-21T06:35:34;4.97;;;1.13;;
75718;SDS011;64340;48.534;-3.036;2024-02-21T06:38:00;5.60;;;0.90;;
75718;SDS011;64340;48.534;-3.036;2024-02-21T06:40:25;7.28;;;1.58;;
75718;SDS011;64340;48.534;-3.036;2024-02-21T06:42:51;5.90;;;0.85;;
75718;SDS011;64340;48.534;-3.036;2024-02-21T06:45:17;4.82;;;0.88;;
75718;SDS011;64340;48.534;-3.036;2024-02-21T06:47:43;6.60;;;1.05;;
75718;SDS011;64340;48.534;-3.036;2024-02-21T06:50:09;5.30;;;0.80;;
75718;SDS011;64340;48.534;-3.036;2024-02-21T06:52:35;4.93;;;1.92;;
75718;SDS011;64340;48.534;-3.036;2024-02-21T06:55:01;6.55;;;0.70;;
75718;SDS011;64340;48.534;-3.036;2024-02-21T06:57:28;7.32;;;1.58;;
75718;SDS011;64340;48.534;-3.036;2024-02-21T06:59:54;3.45;;;0.82;;
75718;SDS011;64340;48.534;-3.036;2024-02-21T07:02:20;6.32;;;0.88;;
75718;SDS011;64340;48.534;-3.036;2024-02-21T07:04:46;4.88;;;0.73;;
75718;SDS011;64340;48.534;-3.036;2024-02-21T07:07:11;2.63;;;0.55;;
75718;SDS011;64340;48.534;-3.036;2024-02-21T07:09:38;4.90;;;0.93;;
75718;SDS011;64340;48.534;-3.036;2024-02-21T07:12:04;3.80;;;0.73;;
75718;SDS011;64340;48.534;-3.036;2024-02-21T07:14:31;2.33;;;0.40;;
75718;SDS011;64340;48.534;-3.036;2024-02-21T07:16:58;4.78;;;1.00;;
75718;SDS011;64340;48.534;-3.036;2024-02-21T07:19:23;3.25;;;0.80;;
75718;SDS011;64340;48.534;-3.036;2024-02-21T07:21:49;3.05;;;0.77;;
75718;SDS011;64340;48.534;-3.036;2024-02-21T07:24:15;7.47;;;0.90;;
75718;SDS011;64340;48.534;-3.036;2024-02-21T07:26:41;3.58;;;0.60;;
75718;SDS011;64340;48.534;-3.036;2024-02-21T07:29:11;2.95;;;0.75;;
75718;SDS011;64340;48.534;-3.036;2024-02-21T07:31:40;4.35;;;0.82;;
75718;SDS011;64340;48.534;-3.036;2024-02-21T07:34:06;4.28;;;0.85;;
75718;SDS011;64340;48.534;-3.036;2024-02-21T07:36:32;3.15;;;0.85;;
75718;SDS011;64340;48.534;-3.036;2024-02-21T07:38:58;3.80;;;0.60;;
75718;SDS011;64340;48.534;-3.036;2024-02-21T07:41:24;3.47;;;0.57;;
75718;SDS011;64340;48.534;-3.036;2024-02-21T07:43:51;3.08;;;0.65;;
75718;SDS011;64340;48.534;-3.036;2024-02-21T07:46:17;2.45;;;0.85;;
75718;SDS011;64340;48.534;-3.036;2024-02-21T07:48:45;2.42;;;0.50;;
75718;SDS011;64340;48.534;-3.036;2024-02-21T07:51:10;2.22;;;0.80;;
75718;SDS011;64340;48.534;-3.036;2024-02-21T07:53:36;2.45;;;0.77;;
75718;SDS011;64340;48.534;-3.036;2024-02-21T07:56:03;3.58;;;0.82;;
75718;SDS011;64340;48.534;-3.036;2024-02-21T07:58:29;2.38;;;0.63;;
75718;SDS011;64340;48.534;-3.036;2024-02-21T08:00:55;2.80;;;1.10;;
75718;SDS011;64340;48.534;-3.036;2024-02-21T08:03:21;3.55;;;0.80;;
75718;SDS011;64340;48.534;-3.036;2024-02-21T08:05:47;4.70;;;0.85;;
75718;SDS011;64340;48.534;-3.036;2024-02-21T08:08:13;3.03;;;0.85;;
75718;SDS011;64340;48.534;-3.036;2024-02-21T08:10:45;3.85;;;0.77;;
75718;SDS011;64340;48.534;-3.036;2024-02-21T08:13:10;4.63;;;1.00;;
75718;SDS011;64340;48.534;-3.036;2024-02-21T08:15:36;2.10;;;0.80;;
75718;SDS011;64340;48.534;-3.036;2024-02-21T08:18:04;4.22;;;1.10;;
75718;SDS011;64340;48.534;-3.036;2024-02-21T08:20:30;1.88;;;0.70;;
75718;SDS011;64340;48.534;-3.036;2024-02-21T08:22:56;4.60;;;0.68;;
75718;SDS011;64340;48.534;-3.036;2024-02-21T08:25:22;2.42;;;0.65;;
75718;SDS011;64340;48.534;-3.036;2024-02-21T08:27:47;4.32;;;1.13;;
75718;SDS011;64340;48.534;-3.036;2024-02-21T08:30:13;2.47;;;0.63;;
75718;SDS011;64340;48.534;-3.036;2024-02-21T08:32:39;2.78;;;0.63;;
75718;SDS011;64340;48.534;-3.036;2024-02-21T08:35:05;2.63;;;0.80;;
75718;SDS011;64340;48.534;-3.036;2024-02-21T08:37:31;7.10;;;1.08;;
75718;SDS011;64340;48.534;-3.036;2024-02-21T08:39:57;3.45;;;0.85;;
75718;SDS011;64340;48.534;-3.036;2024-02-21T08:42:22;5.97;;;1.42;;
75718;SDS011;64340;48.534;-3.036;2024-02-21T08:44:48;8.50;;;1.50;;
75718;SDS011;64340;48.534;-3.036;2024-02-21T08:47:14;4.85;;;1.08;;
75718;SDS011;64340;48.534;-3.036;2024-02-21T08:49:40;6.10;;;1.20;;
75718;SDS011;64340;48.534;-3.036;2024-02-21T08:52:06;10.07;;;1.60;;
75718;SDS011;64340;48.534;-3.036;2024-02-21T08:54:32;3.85;;;1.23;;
75718;SDS011;64340;48.534;-3.036;2024-02-21T08:56:58;8.15;;;1.65;;
75718;SDS011;64340;48.534;-3.036;2024-02-21T08:59:24;5.13;;;1.63;;
75718;SDS011;64340;48.534;-3.036;2024-02-21T09:01:51;5.20;;;1.08;;
75718;SDS011;64340;48.534;-3.036;2024-02-21T09:04:20;4.20;;;0.93;;
75718;SDS011;64340;48.534;-3.036;2024-02-21T09:06:45;4.47;;;1.40;;
75718;SDS011;64340;48.534;-3.036;2024-02-21T09:09:11;6.85;;;1.55;;
75718;SDS011;64340;48.534;-3.036;2024-02-21T09:11:37;3.30;;;1.38;;
75718;SDS011;64340;48.534;-3.036;2024-02-21T09:14:05;4.28;;;1.15;;
75718;SDS011;64340;48.534;-3.036;2024-02-21T09:16:33;4.35;;;1.30;;
75718;SDS011;64340;48.534;-3.036;2024-02-21T09:18:59;4.88;;;1.10;;
75718;SDS011;64340;48.534;-3.036;2024-02-21T09:21:25;5.18;;;1.17;;
75718;SDS011;64340;48.534;-3.036;2024-02-21T09:23:51;5.60;;;1.20;;
75718;SDS011;64340;48.534;-3.036;2024-02-21T09:26:17;5.13;;;1.20;;
75718;SDS011;64340;48.534;-3.036;2024-02-21T09:28:43;6.45;;;1.95;;
75718;SDS011;64340;48.534;-3.036;2024-02-21T09:31:10;4.05;;;1.15;;
75718;SDS011;64340;48.534;-3.036;2024-02-21T09:33:35;6.07;;;1.63;;
75718;SDS011;64340;48.534;-3.036;2024-02-21T09:36:02;5.53;;;1.75;;
75718;SDS011;64340;48.534;-3.036;2024-02-21T09:38:30;3.50;;;1.13;;
75718;SDS011;64340;48.534;-3.036;2024-02-21T09:41:00;5.30;;;1.55;;
75718;SDS011;64340;48.534;-3.036;2024-02-21T09:43:44;5.30;;;1.40;;
75718;SDS011;64340;48.534;-3.036;2024-02-21T09:46:16;3.83;;;1.38;;
75718;SDS011;64340;48.534;-3.036;2024-02-21T09:51:11;4.90;;;1.30;;
75718;SDS011;64340;48.534;-3.036;2024-02-21T09:53:39;3.33;;;1.25;;
75718;SDS011;64340;48.534;-3.036;2024-02-21T09:56:10;3.72;;;1.45;;
75718;SDS011;64340;48.534;-3.036;2024-02-21T09:58:36;4.97;;;1.38;;
75718;SDS011;64340;48.534;-3.036;2024-02-21T10:01:03;3.72;;;1.20;;
75718;SDS011;64340;48.534;-3.036;2024-02-21T10:03:32;3.90;;;1.20;;
75718;SDS011;64340;48.534;-3.036;2024-02-21T10:05:58;3.92;;;2.08;;
75718;SDS011;64340;48.534;-3.036;2024-02-21T10:08:26;6.90;;;2.05;;
75718;SDS011;64340;48.534;-3.036;2024-02-21T10:10:52;7.22;;;2.53;;
75718;SDS011;64340;48.534;-3.036;2024-02-21T10:13:27;7.13;;;2.60;;
75718;SDS011;64340;48.534;-3.036;2024-02-21T10:16:03;16.90;;;7.88;;
75718;SDS011;64340;48.534;-3.036;2024-02-21T10:18:33;13.63;;;8.95;;
75718;SDS011;64340;48.534;-3.036;2024-02-21T10:21:06;16.17;;;8.20;;
75718;SDS011;64340;48.534;-3.036;2024-02-21T10:23:45;10.43;;;7.00;;
75718;SDS011;64340;48.534;-3.036;2024-02-21T10:26:13;11.45;;;6.97;;
75718;SDS011;64340;48.534;-3.036;2024-02-21T10:28:40;15.73;;;7.82;;
75718;SDS011;64340;48.534;-3.036;2024-02-21T10:31:10;14.85;;;7.55;;
75718;SDS011;64340;48.534;-3.036;2024-02-21T10:33:59;18.00;;;7.55;;
75718;SDS011;64340;48.534;-3.036;2024-02-21T10:36:28;23.63;;;8.77;;
75718;SDS011;64340;48.534;-3.036;2024-02-21T10:38:54;21.08;;;10.45;;
75718;SDS011;64340;48.534;-3.036;2024-02-21T10:41:20;27.08;;;11.70;;
75718;SDS011;64340;48.534;-3.036;2024-02-21T10:43:49;30.00;;;12.55;;
75718;SDS011;64340;48.534;-3.036;2024-02-21T10:46:20;29.83;;;12.10;;
75718;SDS011;64340;48.534;-3.036;2024-02-21T10:48:47;35.70;;;12.82;;
75718;SDS011;64340;48.534;-3.036;2024-02-21T10:51:18;37.25;;;14.68;;
75718;SDS011;64340;48.534;-3.036;2024-02-21T10:56:41;32.70;;;12.25;;
75718;SDS011;64340;48.534;-3.036;2024-02-21T10:59:07;43.00;;;15.07;;
75718;SDS011;64340;48.534;-3.036;2024-02-21T11:01:33;38.08;;;15.73;;
75718;SDS011;64340;48.534;-3.036;2024-02-21T11:04:03;30.63;;;14.20;;
75718;SDS011;64340;48.534;-3.036;2024-02-21T11:06:30;34.70;;;14.88;;
75718;SDS011;64340;48.534;-3.036;2024-02-21T11:09:01;35.97;;;14.98;;
75718;SDS011;64340;48.534;-3.036;2024-02-21T11:11:27;37.83;;;15.73;;
75718;SDS011;64340;48.534;-3.036;2024-02-21T11:14:03;122.07;;;50.88;;
75718;SDS011;64340;48.534;-3.036;2024-02-21T11:16:46;206.00;;;80.03;;
75718;SDS011;64340;48.534;-3.036;2024-02-21T11:21:43;193.40;;;77.15;;
75718;SDS011;64340;48.534;-3.036;2024-02-21T11:24:09;198.18;;;75.15;;
75718;SDS011;64340;48.534;-3.036;2024-02-21T11:26:36;195.48;;;74.65;;
75718;SDS011;64340;48.534;-3.036;2024-02-21T11:29:03;180.25;;;74.30;;
75718;SDS011;64340;48.534;-3.036;2024-02-21T11:31:40;171.57;;;70.93;;
75718;SDS011;64340;48.534;-3.036;2024-02-21T11:34:13;176.60;;;66.40;;
75718;SDS011;64340;48.534;-3.036;2024-02-21T11:36:47;159.05;;;67.55;;
75718;SDS011;64340;48.534;-3.036;2024-02-21T11:39:24;164.25;;;65.45;;
75718;SDS011;64340;48.534;-3.036;2024-02-21T11:44:26;154.82;;;61.40;;
75718;SDS011;64340;48.534;-3.036;2024-02-21T11:46:52;144.93;;;58.90;;
75718;SDS011;64340;48.534;-3.036;2024-02-21T11:49:18;142.70;;;60.58;;
75718;SDS011;64340;48.534;-3.036;2024-02-21T11:51:43;140.45;;;57.60;;
75718;SDS011;64340;48.534;-3.036;2024-02-21T11:54:10;145.82;;;58.20;;
75718;SDS011;64340;48.534;-3.036;2024-02-21T11:56:38;131.43;;;54.20;;
75718;SDS011;64340;48.534;-3.036;2024-02-21T11:59:04;122.88;;;52.08;;
75718;SDS011;64340;48.534;-3.036;2024-02-21T12:01:31;137.73;;;50.50;;
75718;SDS011;64340;48.534;-3.036;2024-02-21T12:03:57;125.28;;;51.38;;
75718;SDS011;64340;48.534;-3.036;2024-02-21T12:06:23;124.70;;;49.72;;
75718;SDS011;64340;48.534;-3.036;2024-02-21T12:08:49;117.60;;;49.13;;
75718;SDS011;64340;48.534;-3.036;2024-02-21T12:11:23;109.88;;;47.22;;
75718;SDS011;64340;48.534;-3.036;2024-02-21T12:14:01;117.75;;;49.13;;
75718;SDS011;64340;48.534;-3.036;2024-02-21T12:16:30;101.07;;;45.45;;
75718;SDS011;64340;48.534;-3.036;2024-02-21T12:18:56;102.88;;;44.30;;
75718;SDS011;64340;48.534;-3.036;2024-02-21T12:21:32;111.55;;;44.58;;
75718;SDS011;64340;48.534;-3.036;2024-02-21T12:24:11;103.13;;;43.80;;
75718;SDS011;64340;48.534;-3.036;2024-02-21T12:26:48;97.72;;;41.47;;
75718;SDS011;64340;48.534;-3.036;2024-02-21T12:29:20;95.63;;;40.80;;
75718;SDS011;64340;48.534;-3.036;2024-02-21T12:31:46;87.93;;;39.58;;
75718;SDS011;64340;48.534;-3.036;2024-02-21T12:34:12;96.47;;;39.53;;
75718;SDS011;64340;48.534;-3.036;2024-02-21T12:36:44;88.75;;;40.72;;
75718;SDS011;64340;48.534;-3.036;2024-02-21T12:39:13;91.82;;;38.22;;
75718;SDS011;64340;48.534;-3.036;2024-02-21T12:41:39;89.45;;;38.67;;
75718;SDS011;64340;48.534;-3.036;2024-02-21T12:44:06;81.38;;;37.28;;
75718;SDS011;64340;48.534;-3.036;2024-02-21T12:46:33;78.63;;;35.78;;
75718;SDS011;64340;48.534;-3.036;2024-02-21T12:49:02;81.32;;;35.30;;
75718;SDS011;64340;48.534;-3.036;2024-02-21T12:51:29;77.15;;;33.97;;
75718;SDS011;64340;48.534;-3.036;2024-02-21T12:53:58;82.30;;;34.00;;
75718;SDS011;64340;48.534;-3.036;2024-02-21T12:56:24;69.05;;;31.20;;
75718;SDS011;64340;48.534;-3.036;2024-02-21T12:58:52;73.75;;;31.80;;
75718;SDS011;64340;48.534;-3.036;2024-02-21T13:01:18;71.60;;;31.85;;
75718;SDS011;64340;48.534;-3.036;2024-02-21T13:03:44;65.18;;;29.13;;
75718;SDS011;64340;48.534;-3.036;2024-02-21T13:06:11;67.22;;;28.92;;
75718;SDS011;64340;48.534;-3.036;2024-02-21T13:08:37;66.43;;;29.27;;
75718;SDS011;64340;48.534;-3.036;2024-02-21T13:11:03;56.17;;;26.60;;
75718;SDS011;64340;48.534;-3.036;2024-02-21T13:13:29;61.17;;;27.73;;
75718;SDS011;64340;48.534;-3.036;2024-02-21T13:15:55;55.85;;;25.52;;
75718;SDS011;64340;48.534;-3.036;2024-02-21T13:18:22;61.03;;;25.17;;
75718;SDS011;64340;48.534;-3.036;2024-02-21T13:20:47;50.70;;;24.90;;
75718;SDS011;64340;48.534;-3.036;2024-02-21T13:23:13;58.63;;;24.92;;
75718;SDS011;64340;48.534;-3.036;2024-02-21T13:25:39;52.35;;;24.05;;
75718;SDS011;64340;48.534;-3.036;2024-02-21T13:28:04;51.10;;;23.77;;
75718;SDS011;64340;48.534;-3.036;2024-02-21T13:30:30;51.92;;;23.13;;
75718;SDS011;64340;48.534;-3.036;2024-02-21T13:32:56;47.53;;;22.95;;
75718;SDS011;64340;48.534;-3.036;2024-02-21T13:35:22;46.67;;;21.67;;
75718;SDS011;64340;48.534;-3.036;2024-02-21T13:37:48;54.42;;;23.77;;
75718;SDS011;64340;48.534;-3.036;2024-02-21T13:40:15;50.42;;;22.58;;
75718;SDS011;64340;48.534;-3.036;2024-02-21T13:42:41;48.42;;;20.98;;
75718;SDS011;64340;48.534;-3.036;2024-02-21T13:45:08;48.20;;;21.08;;
75718;SDS011;64340;48.534;-3.036;2024-02-21T13:47:34;40.85;;;19.98;;
75718;SDS011;64340;48.534;-3.036;2024-02-21T13:50:06;41.30;;;19.80;;
75718;SDS011;64340;48.534;-3.036;2024-02-21T13:52:37;43.22;;;21.45;;
75718;SDS011;64340;48.534;-3.036;2024-02-21T13:55:03;44.75;;;19.95;;
75718;SDS011;64340;48.534;-3.036;2024-02-21T13:57:28;41.90;;;18.67;;
75718;SDS011;64340;48.534;-3.036;2024-02-21T13:59:54;40.78;;;20.00;;
75718;SDS011;64340;48.534;-3.036;2024-02-21T14:02:20;42.85;;;19.48;;
75718;SDS011;64340;48.534;-3.036;2024-02-21T14:04:46;38.33;;;18.02;;
75718;SDS011;64340;48.534;-3.036;2024-02-21T14:07:12;35.20;;;16.20;;
75718;SDS011;64340;48.534;-3.036;2024-02-21T14:09:38;41.97;;;18.23;;
75718;SDS011;64340;48.534;-3.036;2024-02-21T14:12:04;39.97;;;16.70;;
75718;SDS011;64340;48.534;-3.036;2024-02-21T14:19:25;36.08;;;16.25;;
75718;SDS011;64340;48.534;-3.036;2024-02-21T14:21:51;33.83;;;15.65;;
75718;SDS011;64340;48.534;-3.036;2024-02-21T14:24:17;29.60;;;14.90;;
75718;SDS011;64340;48.534;-3.036;2024-02-21T14:26:43;29.75;;;14.50;;
75718;SDS011;64340;48.534;-3.036;2024-02-21T14:29:09;32.50;;;15.13;;
75718;SDS011;64340;48.534;-3.036;2024-02-21T14:31:35;30.90;;;14.73;;
75718;SDS011;64340;48.534;-3.036;2024-02-21T14:34:01;25.48;;;13.38;;
75718;SDS011;64340;48.534;-3.036;2024-02-21T14:36:27;31.55;;;14.52;;
75718;SDS011;64340;48.534;-3.036;2024-02-21T14:38:53;28.98;;;13.30;;